Shawanee, Tennessee
Current Conditions -  °F | °C
As of 9:35 PM on Wednesday 22 Oct 2014 (Local Time) from K1A6 Reporting Station
Overcast Overcast  
Wind Chill: 49°   Ceiling: 3400
Heat Index: 49°   Visibility: 10mi
Dew Point: 40°   Wind: 0mph
Humidity: 73%   Direction: NA
Pressure: 30.24"   Gusts: NA
Location:  36.58°N, 83.64°W
Report Text: K1A6 230135Z AUTO 00000KT 10SM OVC034 09/05 A3024 RMK AO2 T00930047
Loading
Personal Weather Stations






























Interactive Weather Map
Tropical Storm Tracking
New forecast layout! Learn more

10-Day Weather Forecast

Advertisements
Track Severe Weather on mobile